sensor_id;sensor_type;location;lat;lon;timestamp;temperature;humidity
40255;DHT22;25973;52.368;4.940;2023-01-29T00:01:03;6.80;99.90
40255;DHT22;25973;52.368;4.940;2023-01-29T00:03:29;6.80;99.90
40255;DHT22;25973;52.368;4.940;2023-01-29T00:05:55;6.80;99.90
40255;DHT22;25973;52.368;4.940;2023-01-29T00:08:20;6.80;99.90
40255;DHT22;25973;52.368;4.940;2023-01-29T00:10:46;6.80;99.90
40255;DHT22;25973;52.368;4.940;2023-01-29T00:13:12;6.70;99.90
40255;DHT22;25973;52.368;4.940;2023-01-29T00:15:38;6.70;99.90
40255;DHT22;25973;52.368;4.940;2023-01-29T00:18:03;6.70;99.90
40255;DHT22;25973;52.368;4.940;2023-01-29T00:20:30;6.80;99.90
40255;DHT22;25973;52.368;4.940;2023-01-29T00:22:55;6.80;99.90
40255;DHT22;25973;52.368;4.940;2023-01-29T00:25:21;6.80;99.90
40255;DHT22;25973;52.368;4.940;2023-01-29T00:27:47;6.70;99.90
40255;DHT22;25973;52.368;4.940;2023-01-29T00:30:12;6.80;99.90
40255;DHT22;25973;52.368;4.940;2023-01-29T00:32:40;6.80;99.90
40255;DHT22;25973;52.368;4.940;2023-01-29T00:35:07;6.80;99.90
40255;DHT22;25973;52.368;4.940;2023-01-29T00:37:33;6.80;99.90
40255;DHT22;25973;52.368;4.940;2023-01-29T00:39:59;6.90;99.90
40255;DHT22;25973;52.368;4.940;2023-01-29T00:42:24;6.90;99.90
40255;DHT22;25973;52.368;4.940;2023-01-29T00:45:10;6.90;99.90
40255;DHT22;25973;52.368;4.940;2023-01-29T00:47:36;6.90;99.90
40255;DHT22;25973;52.368;4.940;2023-01-29T00:50:08;6.90;99.90
40255;DHT22;25973;52.368;4.940;2023-01-29T00:52:34;6.90;99.90
40255;DHT22;25973;52.368;4.940;2023-01-29T00:55:01;6.90;99.90
40255;DHT22;25973;52.368;4.940;2023-01-29T00:57:28;6.90;99.90
40255;DHT22;25973;52.368;4.940;2023-01-29T00:59:54;7.00;99.90
40255;DHT22;25973;52.368;4.940;2023-01-29T01:02:20;7.00;99.90
40255;DHT22;25973;52.368;4.940;2023-01-29T01:05:06;7.00;99.90
40255;DHT22;25973;52.368;4.940;2023-01-29T01:07:32;7.00;99.90
40255;DHT22;25973;52.368;4.940;2023-01-29T01:09:58;7.00;99.90
40255;DHT22;25973;52.368;4.940;2023-01-29T01:12:42;7.00;99.90
40255;DHT22;25973;52.368;4.940;2023-01-29T01:15:08;7.00;99.90
40255;DHT22;25973;52.368;4.940;2023-01-29T01:17:34;7.00;99.90
40255;DHT22;25973;52.368;4.940;2023-01-29T01:20:00;7.00;99.90
40255;DHT22;25973;52.368;4.940;2023-01-29T01:22:25;7.10;99.90
40255;DHT22;25973;52.368;4.940;2023-01-29T01:24:51;7.00;99.90
40255;DHT22;25973;52.368;4.940;2023-01-29T01:27:16;7.10;99.90
40255;DHT22;25973;52.368;4.940;2023-01-29T01:29:44;7.10;99.90
40255;DHT22;25973;52.368;4.940;2023-01-29T01:32:10;7.10;99.90
40255;DHT22;25973;52.368;4.940;2023-01-29T01:34:36;7.10;99.90
40255;DHT22;25973;52.368;4.940;2023-01-29T01:37:02;7.10;99.90
40255;DHT22;25973;52.368;4.940;2023-01-29T01:39:27;7.10;99.90
40255;DHT22;25973;52.368;4.940;2023-01-29T01:41:53;7.20;99.90
40255;DHT22;25973;52.368;4.940;2023-01-29T01:45:13;7.20;99.90
40255;DHT22;25973;52.368;4.940;2023-01-29T01:50:00;7.20;99.90
40255;DHT22;25973;52.368;4.940;2023-01-29T01:52:28;7.10;99.90
40255;DHT22;25973;52.368;4.940;2023-01-29T01:54:56;7.10;99.90
40255;DHT22;25973;52.368;4.940;2023-01-29T01:57:22;7.00;99.90
40255;DHT22;25973;52.368;4.940;2023-01-29T01:59:55;7.00;99.90
40255;DHT22;25973;52.368;4.940;2023-01-29T02:02:23;7.00;99.90
40255;DHT22;25973;52.368;4.940;2023-01-29T02:05:09;7.00;99.90
40255;DHT22;25973;52.368;4.940;2023-01-29T02:07:54;7.10;99.90
40255;DHT22;25973;52.368;4.940;2023-01-29T02:10:45;7.10;99.90
40255;DHT22;25973;52.368;4.940;2023-01-29T02:13:11;7.00;99.90
40255;DHT22;25973;52.368;4.940;2023-01-29T02:15:37;7.10;99.90
40255;DHT22;25973;52.368;4.940;2023-01-29T02:18:06;7.10;99.90
40255;DHT22;25973;52.368;4.940;2023-01-29T02:20:33;7.10;99.90
40255;DHT22;25973;52.368;4.940;2023-01-29T02:29:11;7.00;99.90
40255;DHT22;25973;52.368;4.940;2023-01-29T02:35:01;7.10;99.90
40255;DHT22;25973;52.368;4.940;2023-01-29T02:38:16;7.10;99.90
40255;DHT22;25973;52.368;4.940;2023-01-29T02:40:52;7.10;99.90
40255;DHT22;25973;52.368;4.940;2023-01-29T02:43:45;7.10;99.90
40255;DHT22;25973;52.368;4.940;2023-01-29T02:49:05;7.10;99.90
40255;DHT22;25973;52.368;4.940;2023-01-29T02:52:01;7.10;99.90
40255;DHT22;25973;52.368;4.940;2023-01-29T02:57:20;7.00;99.90
40255;DHT22;25973;52.368;4.940;2023-01-29T03:02:30;7.00;99.90
40255;DHT22;25973;52.368;4.940;2023-01-29T03:05:03;7.00;99.90
40255;DHT22;25973;52.368;4.940;2023-01-29T03:07:37;7.00;99.90
40255;DHT22;25973;52.368;4.940;2023-01-29T03:10:15;6.90;99.90
40255;DHT22;25973;52.368;4.940;2023-01-29T03:12:43;6.90;99.90
40255;DHT22;25973;52.368;4.940;2023-01-29T03:15:15;6.90;99.90
40255;DHT22;25973;52.368;4.940;2023-01-29T03:18:10;6.90;99.90
40255;DHT22;25973;52.368;4.940;2023-01-29T03:20:45;6.90;99.90
40255;DHT22;25973;52.368;4.940;2023-01-29T03:23:19;6.90;99.90
40255;DHT22;25973;52.368;4.940;2023-01-29T03:25:57;6.90;99.90
40255;DHT22;25973;52.368;4.940;2023-01-29T03:28:43;7.00;99.90
40255;DHT22;25973;52.368;4.940;2023-01-29T03:31:29;6.90;99.90
40255;DHT22;25973;52.368;4.940;2023-01-29T03:34:23;6.90;99.90
40255;DHT22;25973;52.368;4.940;2023-01-29T03:37:04;6.90;99.90
40255;DHT22;25973;52.368;4.940;2023-01-29T03:39:33;6.90;99.90
40255;DHT22;25973;52.368;4.940;2023-01-29T03:52:44;6.80;99.90
40255;DHT22;25973;52.368;4.940;2023-01-29T03:55:16;6.80;99.90
40255;DHT22;25973;52.368;4.940;2023-01-29T03:58:03;6.80;99.90
40255;DHT22;25973;52.368;4.940;2023-01-29T04:00:57;6.80;99.90
40255;DHT22;25973;52.368;4.940;2023-01-29T04:03:34;6.90;99.90
40255;DHT22;25973;52.368;4.940;2023-01-29T04:06:16;6.80;99.90
40255;DHT22;25973;52.368;4.940;2023-01-29T04:08:47;6.90;99.90
40255;DHT22;25973;52.368;4.940;2023-01-29T04:11:17;6.90;99.90
40255;DHT22;25973;52.368;4.940;2023-01-29T04:13:45;6.90;99.90
40255;DHT22;25973;52.368;4.940;2023-01-29T04:16:25;6.80;99.90
40255;DHT22;25973;52.368;4.940;2023-01-29T04:18:55;6.80;99.90
40255;DHT22;25973;52.368;4.940;2023-01-29T04:21:22;6.80;99.90
40255;DHT22;25973;52.368;4.940;2023-01-29T04:23:49;6.80;99.90
40255;DHT22;25973;52.368;4.940;2023-01-29T04:26:27;6.80;99.90
40255;DHT22;25973;52.368;4.940;2023-01-29T04:31:51;6.70;99.90
40255;DHT22;25973;52.368;4.940;2023-01-29T04:34:27;6.70;99.90
40255;DHT22;25973;52.368;4.940;2023-01-29T04:46:09;6.70;99.90
40255;DHT22;25973;52.368;4.940;2023-01-29T04:51:54;6.70;99.90
40255;DHT22;25973;52.368;4.940;2023-01-29T04:54:49;6.70;99.90
40255;DHT22;25973;52.368;4.940;2023-01-29T04:57:34;6.70;99.90
40255;DHT22;25973;52.368;4.940;2023-01-29T05:02:33;6.70;99.90
40255;DHT22;25973;52.368;4.940;2023-01-29T05:04:59;6.70;99.90
40255;DHT22;25973;52.368;4.940;2023-01-29T05:07:25;6.70;99.90
40255;DHT22;25973;52.368;4.940;2023-01-29T05:09:55;6.70;99.90
40255;DHT22;25973;52.368;4.940;2023-01-29T05:12:24;6.70;99.90
40255;DHT22;25973;52.368;4.940;2023-01-29T05:14:52;6.70;99.90
40255;DHT22;25973;52.368;4.940;2023-01-29T05:17:19;6.70;99.90
40255;DHT22;25973;52.368;4.940;2023-01-29T05:19:45;6.70;99.90
40255;DHT22;25973;52.368;4.940;2023-01-29T05:22:14;6.70;99.90
40255;DHT22;25973;52.368;4.940;2023-01-29T05:24:40;6.70;99.90
40255;DHT22;25973;52.368;4.940;2023-01-29T05:27:13;6.70;99.90
40255;DHT22;25973;52.368;4.940;2023-01-29T05:29:59;6.70;99.90
40255;DHT22;25973;52.368;4.940;2023-01-29T05:32:25;6.70;99.90
40255;DHT22;25973;52.368;4.940;2023-01-29T05:34:50;6.70;99.90
40255;DHT22;25973;52.368;4.940;2023-01-29T05:37:16;6.80;99.90
40255;DHT22;25973;52.368;4.940;2023-01-29T05:39:41;6.70;99.90
40255;DHT22;25973;52.368;4.940;2023-01-29T05:42:07;6.80;99.90
40255;DHT22;25973;52.368;4.940;2023-01-29T05:44:32;6.80;99.90
40255;DHT22;25973;52.368;4.940;2023-01-29T05:46:58;6.80;99.90
40255;DHT22;25973;52.368;4.940;2023-01-29T05:49:24;6.80;99.90
40255;DHT22;25973;52.368;4.940;2023-01-29T05:51:49;6.80;99.90
40255;DHT22;25973;52.368;4.940;2023-01-29T05:54:15;6.80;99.90
40255;DHT22;25973;52.368;4.940;2023-01-29T05:56:40;6.80;99.90
40255;DHT22;25973;52.368;4.940;2023-01-29T05:59:06;6.80;99.90
40255;DHT22;25973;52.368;4.940;2023-01-29T06:01:31;6.80;99.90
40255;DHT22;25973;52.368;4.940;2023-01-29T06:03:57;6.80;99.90
40255;DHT22;25973;52.368;4.940;2023-01-29T06:06:23;6.70;99.90
40255;DHT22;25973;52.368;4.940;2023-01-29T06:08:48;6.80;99.90
40255;DHT22;25973;52.368;4.940;2023-01-29T06:11:14;6.80;99.90
40255;DHT22;25973;52.368;4.940;2023-01-29T06:13:43;6.80;99.90
40255;DHT22;25973;52.368;4.940;2023-01-29T06:16:10;6.80;99.90
40255;DHT22;25973;52.368;4.940;2023-01-29T06:18:36;6.80;99.90
40255;DHT22;25973;52.368;4.940;2023-01-29T06:21:04;6.70;99.90
40255;DHT22;25973;52.368;4.940;2023-01-29T06:23:30;6.70;99.90
40255;DHT22;25973;52.368;4.940;2023-01-29T06:26:00;6.80;99.90
40255;DHT22;25973;52.368;4.940;2023-01-29T06:28:25;6.80;99.90
40255;DHT22;25973;52.368;4.940;2023-01-29T06:30:51;6.80;99.90
40255;DHT22;25973;52.368;4.940;2023-01-29T06:33:16;6.70;99.90
40255;DHT22;25973;52.368;4.940;2023-01-29T06:35:42;6.80;99.90
40255;DHT22;25973;52.368;4.940;2023-01-29T06:38:07;6.80;99.90
40255;DHT22;25973;52.368;4.940;2023-01-29T06:40:33;6.80;99.90
40255;DHT22;25973;52.368;4.940;2023-01-29T06:43:01;6.80;99.90
40255;DHT22;25973;52.368;4.940;2023-01-29T06:45:27;6.80;99.90
40255;DHT22;25973;52.368;4.940;2023-01-29T06:47:53;6.80;99.90
40255;DHT22;25973;52.368;4.940;2023-01-29T06:50:18;6.80;99.90
40255;DHT22;25973;52.368;4.940;2023-01-29T06:52:44;6.80;99.90
40255;DHT22;25973;52.368;4.940;2023-01-29T06:55:09;6.70;99.90
40255;DHT22;25973;52.368;4.940;2023-01-29T06:57:35;6.70;99.90
40255;DHT22;25973;52.368;4.940;2023-01-29T07:00:00;6.70;99.90
40255;DHT22;25973;52.368;4.940;2023-01-29T07:02:26;6.70;99.90
40255;DHT22;25973;52.368;4.940;2023-01-29T07:04:51;6.70;99.90
40255;DHT22;25973;52.368;4.940;2023-01-29T07:07:17;6.70;99.90
40255;DHT22;25973;52.368;4.940;2023-01-29T07:09:42;6.60;99.90
40255;DHT22;25973;52.368;4.940;2023-01-29T07:12:09;6.60;99.90
40255;DHT22;25973;52.368;4.940;2023-01-29T07:14:34;6.60;99.90
40255;DHT22;25973;52.368;4.940;2023-01-29T07:17:00;6.60;99.90
40255;DHT22;25973;52.368;4.940;2023-01-29T07:19:25;6.60;99.90
40255;DHT22;25973;52.368;4.940;2023-01-29T07:21:51;6.60;99.90
40255;DHT22;25973;52.368;4.940;2023-01-29T07:24:17;6.60;99.90
40255;DHT22;25973;52.368;4.940;2023-01-29T07:26:43;6.60;99.90
40255;DHT22;25973;52.368;4.940;2023-01-29T07:29:09;6.50;99.90
40255;DHT22;25973;52.368;4.940;2023-01-29T07:31:34;6.50;99.90
40255;DHT22;25973;52.368;4.940;2023-01-29T07:34:00;6.50;99.90
40255;DHT22;25973;52.368;4.940;2023-01-29T07:36:27;6.50;99.90
40255;DHT22;25973;52.368;4.940;2023-01-29T07:38:54;6.50;99.90
40255;DHT22;25973;52.368;4.940;2023-01-29T07:41:20;6.50;99.90
40255;DHT22;25973;52.368;4.940;2023-01-29T07:43:46;6.50;99.90
40255;DHT22;25973;52.368;4.940;2023-01-29T07:46:11;6.50;99.90
40255;DHT22;25973;52.368;4.940;2023-01-29T07:48:37;6.50;99.90
40255;DHT22;25973;52.368;4.940;2023-01-29T07:51:02;6.50;99.90
40255;DHT22;25973;52.368;4.940;2023-01-29T07:53:29;6.50;99.90
40255;DHT22;25973;52.368;4.940;2023-01-29T07:55:55;6.50;99.90
40255;DHT22;25973;52.368;4.940;2023-01-29T07:58:21;6.50;99.90
40255;DHT22;25973;52.368;4.940;2023-01-29T08:00:46;6.50;99.90
40255;DHT22;25973;52.368;4.940;2023-01-29T08:03:14;6.40;99.90
40255;DHT22;25973;52.368;4.940;2023-01-29T08:05:43;6.40;99.90
40255;DHT22;25973;52.368;4.940;2023-01-29T08:08:09;6.50;99.90
40255;DHT22;25973;52.368;4.940;2023-01-29T08:10:35;6.50;99.90
40255;DHT22;25973;52.368;4.940;2023-01-29T08:13:02;6.50;99.90
40255;DHT22;25973;52.368;4.940;2023-01-29T08:15:28;6.50;99.90
40255;DHT22;25973;52.368;4.940;2023-01-29T08:17:54;6.50;99.90
40255;DHT22;25973;52.368;4.940;2023-01-29T08:20:21;6.60;99.90
40255;DHT22;25973;52.368;4.940;2023-01-29T08:22:46;6.60;99.90
40255;DHT22;25973;52.368;4.940;2023-01-29T08:25:12;6.60;99.90
40255;DHT22;25973;52.368;4.940;2023-01-29T08:27:38;6.60;99.90
40255;DHT22;25973;52.368;4.940;2023-01-29T08:30:04;6.60;99.90
40255;DHT22;25973;52.368;4.940;2023-01-29T08:32:30;6.70;99.90
40255;DHT22;25973;52.368;4.940;2023-01-29T08:34:56;6.60;99.90
40255;DHT22;25973;52.368;4.940;2023-01-29T08:37:21;6.60;99.90
40255;DHT22;25973;52.368;4.940;2023-01-29T08:39:47;6.60;99.90
40255;DHT22;25973;52.368;4.940;2023-01-29T08:42:12;6.70;99.90
40255;DHT22;25973;52.368;4.940;2023-01-29T08:44:38;6.70;99.90
40255;DHT22;25973;52.368;4.940;2023-01-29T08:47:03;6.70;99.90
40255;DHT22;25973;52.368;4.940;2023-01-29T08:49:29;6.70;99.90
40255;DHT22;25973;52.368;4.940;2023-01-29T08:51:54;6.80;99.90
40255;DHT22;25973;52.368;4.940;2023-01-29T08:54:22;6.80;99.90
40255;DHT22;25973;52.368;4.940;2023-01-29T08:56:47;6.90;99.90
40255;DHT22;25973;52.368;4.940;2023-01-29T08:59:13;6.90;99.90
40255;DHT22;25973;52.368;4.940;2023-01-29T09:01:38;6.90;99.90
40255;DHT22;25973;52.368;4.940;2023-01-29T09:04:04;7.00;99.90
40255;DHT22;25973;52.368;4.940;2023-01-29T09:06:30;7.00;99.90
40255;DHT22;25973;52.368;4.940;2023-01-29T09:08:56;7.00;99.90
40255;DHT22;25973;52.368;4.940;2023-01-29T09:11:21;7.00;99.90
40255;DHT22;25973;52.368;4.940;2023-01-29T09:13:47;7.00;99.90
40255;DHT22;25973;52.368;4.940;2023-01-29T09:16:12;7.00;99.90
40255;DHT22;25973;52.368;4.940;2023-01-29T09:18:38;7.10;99.90
40255;DHT22;25973;52.368;4.940;2023-01-29T09:21:04;7.10;99.90
40255;DHT22;25973;52.368;4.940;2023-01-29T09:23:29;7.10;99.90
40255;DHT22;25973;52.368;4.940;2023-01-29T09:25:56;7.00;99.90
40255;DHT22;25973;52.368;4.940;2023-01-29T09:28:22;7.00;99.90
40255;DHT22;25973;52.368;4.940;2023-01-29T09:30:47;7.00;99.90
40255;DHT22;25973;52.368;4.940;2023-01-29T09:33:13;7.00;99.90
40255;DHT22;25973;52.368;4.940;2023-01-29T09:35:42;7.00;99.90
40255;DHT22;25973;52.368;4.940;2023-01-29T09:38:10;7.10;99.90
40255;DHT22;25973;52.368;4.940;2023-01-29T09:43:20;7.20;99.90
40255;DHT22;25973;52.368;4.940;2023-01-29T09:45:58;7.20;99.90
40255;DHT22;25973;52.368;4.940;2023-01-29T09:48:26;7.20;99.90
40255;DHT22;25973;52.368;4.940;2023-01-29T09:50:55;7.30;99.90
40255;DHT22;25973;52.368;4.940;2023-01-29T09:56:26;7.20;99.90
40255;DHT22;25973;52.368;4.940;2023-01-29T09:58:56;7.20;99.90
40255;DHT22;25973;52.368;4.940;2023-01-29T10:04:06;7.20;99.90
40255;DHT22;25973;52.368;4.940;2023-01-29T10:07:11;7.20;99.90
40255;DHT22;25973;52.368;4.940;2023-01-29T10:09:58;7.20;99.90
40255;DHT22;25973;52.368;4.940;2023-01-29T10:15:30;7.20;99.90
40255;DHT22;25973;52.368;4.940;2023-01-29T10:20:40;7.20;99.90
40255;DHT22;25973;52.368;4.940;2023-01-29T10:23:37;7.20;99.90
40255;DHT22;25973;52.368;4.940;2023-01-29T10:26:06;7.30;99.90
40255;DHT22;25973;52.368;4.940;2023-01-29T10:28:43;7.30;99.90
40255;DHT22;25973;52.368;4.940;2023-01-29T10:33:51;7.40;99.90
40255;DHT22;25973;52.368;4.940;2023-01-29T10:36:22;7.50;99.90
40255;DHT22;25973;52.368;4.940;2023-01-29T10:38:50;7.50;99.90
40255;DHT22;25973;52.368;4.940;2023-01-29T10:44:14;7.40;99.90
40255;DHT22;25973;52.368;4.940;2023-01-29T10:58:05;7.40;99.90
40255;DHT22;25973;52.368;4.940;2023-01-29T11:00:37;7.40;99.90
40255;DHT22;25973;52.368;4.940;2023-01-29T11:06:00;7.40;99.90
40255;DHT22;25973;52.368;4.940;2023-01-29T11:08:33;7.40;99.90
40255;DHT22;25973;52.368;4.940;2023-01-29T11:11:12;7.40;99.90
40255;DHT22;25973;52.368;4.940;2023-01-29T11:13:43;7.40;99.90
40255;DHT22;25973;52.368;4.940;2023-01-29T11:16:09;7.40;99.90
40255;DHT22;25973;52.368;4.940;2023-01-29T11:19:07;7.40;99.90
40255;DHT22;25973;52.368;4.940;2023-01-29T11:21:50;7.40;99.90
40255;DHT22;25973;52.368;4.940;2023-01-29T11:24:16;7.40;99.90
40255;DHT22;25973;52.368;4.940;2023-01-29T11:26:45;7.30;99.90
40255;DHT22;25973;52.368;4.940;2023-01-29T11:31:58;7.30;99.90
40255;DHT22;25973;52.368;4.940;2023-01-29T11:34:25;7.30;99.90
40255;DHT22;25973;52.368;4.940;2023-01-29T11:36:57;7.30;99.90
40255;DHT22;25973;52.368;4.940;2023-01-29T11:39:24;7.30;99.90
40255;DHT22;25973;52.368;4.940;2023-01-29T11:41:56;7.30;99.90
40255;DHT22;25973;52.368;4.940;2023-01-29T11:44:34;7.30;99.90
40255;DHT22;25973;52.368;4.940;2023-01-29T11:49:40;7.30;99.90
40255;DHT22;25973;52.368;4.940;2023-01-29T11:52:09;7.30;99.90
40255;DHT22;25973;52.368;4.940;2023-01-29T11:54:44;7.30;99.90
40255;DHT22;25973;52.368;4.940;2023-01-29T11:59:52;7.30;99.90
40255;DHT22;25973;52.368;4.940;2023-01-29T12:02:32;7.30;99.90
40255;DHT22;25973;52.368;4.940;2023-01-29T12:05:16;7.40;99.90
40255;DHT22;25973;52.368;4.940;2023-01-29T12:07:43;7.40;99.90
40255;DHT22;25973;52.368;4.940;2023-01-29T12:10:37;7.30;99.90
40255;DHT22;25973;52.368;4.940;2023-01-29T12:13:24;7.30;99.90
40255;DHT22;25973;52.368;4.940;2023-01-29T12:16:25;7.30;99.90
40255;DHT22;25973;52.368;4.940;2023-01-29T12:19:10;7.20;99.90
40255;DHT22;25973;52.368;4.940;2023-01-29T12:27:00;7.20;99.90
40255;DHT22;25973;52.368;4.940;2023-01-29T12:29:30;7.10;99.90
40255;DHT22;25973;52.368;4.940;2023-01-29T12:32:21;7.20;99.90
40255;DHT22;25973;52.368;4.940;2023-01-29T12:35:08;7.20;99.90
40255;DHT22;25973;52.368;4.940;2023-01-29T12:38:09;7.10;99.90
40255;DHT22;25973;52.368;4.940;2023-01-29T12:40:42;7.10;99.90
40255;DHT22;25973;52.368;4.940;2023-01-29T12:43:23;7.20;99.90
40255;DHT22;25973;52.368;4.940;2023-01-29T12:45:53;7.20;99.90
40255;DHT22;25973;52.368;4.940;2023-01-29T12:48:26;7.20;99.90
40255;DHT22;25973;52.368;4.940;2023-01-29T12:50:54;7.20;99.90
40255;DHT22;25973;52.368;4.940;2023-01-29T12:53:29;7.20;99.90
40255;DHT22;25973;52.368;4.940;2023-01-29T12:56:48;7.20;99.90
40255;DHT22;25973;52.368;4.940;2023-01-29T12:58:51;7.20;99.90
40255;DHT22;25973;52.368;4.940;2023-01-29T13:01:28;7.20;99.90
40255;DHT22;25973;52.368;4.940;2023-01-29T13:04:03;7.20;99.90
40255;DHT22;25973;52.368;4.940;2023-01-29T13:06:37;7.10;99.90
40255;DHT22;25973;52.368;4.940;2023-01-29T13:09:12;7.00;99.90
40255;DHT22;25973;52.368;4.940;2023-01-29T13:11:43;6.90;99.90
40255;DHT22;25973;52.368;4.940;2023-01-29T13:14:24;6.90;99.90
40255;DHT22;25973;52.368;4.940;2023-01-29T13:17:00;6.80;99.90
40255;DHT22;25973;52.368;4.940;2023-01-29T13:19:30;6.80;99.90
40255;DHT22;25973;52.368;4.940;2023-01-29T13:21:59;6.60;99.90
40255;DHT22;25973;52.368;4.940;2023-01-29T13:24:38;6.60;99.90
40255;DHT22;25973;52.368;4.940;2023-01-29T13:27:04;6.60;99.90
40255;DHT22;25973;52.368;4.940;2023-01-29T13:29:31;6.60;99.90
40255;DHT22;25973;52.368;4.940;2023-01-29T13:32:03;6.50;99.90
40255;DHT22;25973;52.368;4.940;2023-01-29T13:34:33;6.50;99.90
40255;DHT22;25973;52.368;4.940;2023-01-29T13:37:02;6.50;99.90
40255;DHT22;25973;52.368;4.940;2023-01-29T13:39:34;6.50;99.90
40255;DHT22;25973;52.368;4.940;2023-01-29T13:42:13;6.50;99.90
40255;DHT22;25973;52.368;4.940;2023-01-29T13:44:40;6.60;99.90
40255;DHT22;25973;52.368;4.940;2023-01-29T13:47:07;6.60;99.90
40255;DHT22;25973;52.368;4.940;2023-01-29T13:49:39;6.60;99.90
40255;DHT22;25973;52.368;4.940;2023-01-29T13:55:03;6.70;99.90
40255;DHT22;25973;52.368;4.940;2023-01-29T14:07:55;6.90;99.90
40255;DHT22;25973;52.368;4.940;2023-01-29T14:10:24;7.00;99.90
40255;DHT22;25973;52.368;4.940;2023-01-29T14:12:52;7.00;99.90
40255;DHT22;25973;52.368;4.940;2023-01-29T14:15:27;7.00;99.90
40255;DHT22;25973;52.368;4.940;2023-01-29T14:20:50;7.00;99.90
40255;DHT22;25973;52.368;4.940;2023-01-29T14:23:26;7.00;99.90
40255;DHT22;25973;52.368;4.940;2023-01-29T14:25:53;7.10;99.90
40255;DHT22;25973;52.368;4.940;2023-01-29T14:28:23;7.10;99.90
40255;DHT22;25973;52.368;4.940;2023-01-29T14:30:49;7.10;99.90
40255;DHT22;25973;52.368;4.940;2023-01-29T14:33:27;7.10;99.90
40255;DHT22;25973;52.368;4.940;2023-01-29T14:35:57;7.10;99.90
40255;DHT22;25973;52.368;4.940;2023-01-29T14:38:25;7.10;99.90
40255;DHT22;25973;52.368;4.940;2023-01-29T14:41:06;7.10;99.90
40255;DHT22;25973;52.368;4.940;2023-01-29T14:43:32;7.20;99.90
40255;DHT22;25973;52.368;4.940;2023-01-29T14:48:58;7.10;99.90
40255;DHT22;25973;52.368;4.940;2023-01-29T14:51:25;7.20;99.90
40255;DHT22;25973;52.368;4.940;2023-01-29T14:56:56;7.20;99.90
40255;DHT22;25973;52.368;4.940;2023-01-29T14:59:43;7.20;99.90
40255;DHT22;25973;52.368;4.940;2023-01-29T15:02:36;7.20;99.90
40255;DHT22;25973;52.368;4.940;2023-01-29T15:05:09;7.20;99.90
40255;DHT22;25973;52.368;4.940;2023-01-29T15:07:38;7.20;99.90
40255;DHT22;25973;52.368;4.940;2023-01-29T15:10:20;7.20;99.90
40255;DHT22;25973;52.368;4.940;2023-01-29T15:13:00;7.10;99.90
40255;DHT22;25973;52.368;4.940;2023-01-29T15:15:37;7.20;99.90
40255;DHT22;25973;52.368;4.940;2023-01-29T15:18:31;7.10;99.90
40255;DHT22;25973;52.368;4.940;2023-01-29T15:21:16;7.10;99.90
40255;DHT22;25973;52.368;4.940;2023-01-29T15:23:42;7.10;99.90
40255;DHT22;25973;52.368;4.940;2023-01-29T15:28:42;7.10;99.90
40255;DHT22;25973;52.368;4.940;2023-01-29T15:31:12;7.10;99.90
40255;DHT22;25973;52.368;4.940;2023-01-29T15:33:41;7.10;99.90
40255;DHT22;25973;52.368;4.940;2023-01-29T15:36:11;7.10;99.90
40255;DHT22;25973;52.368;4.940;2023-01-29T15:38:40;7.00;99.90
40255;DHT22;25973;52.368;4.940;2023-01-29T15:41:17;7.00;99.90
40255;DHT22;25973;52.368;4.940;2023-01-29T15:43:49;7.00;99.90
40255;DHT22;25973;52.368;4.940;2023-01-29T15:46:29;7.00;99.90
40255;DHT22;25973;52.368;4.940;2023-01-29T15:49:00;7.00;99.90
40255;DHT22;25973;52.368;4.940;2023-01-29T15:51:27;7.00;99.90
40255;DHT22;25973;52.368;4.940;2023-01-29T15:56:30;7.00;99.90
40255;DHT22;25973;52.368;4.940;2023-01-29T15:58:58;7.00;99.90
40255;DHT22;25973;52.368;4.940;2023-01-29T16:01:28;6.90;99.90
40255;DHT22;25973;52.368;4.940;2023-01-29T16:03:54;6.90;99.90
40255;DHT22;25973;52.368;4.940;2023-01-29T16:06:22;6.90;99.90
40255;DHT22;25973;52.368;4.940;2023-01-29T16:08:50;6.90;99.90
40255;DHT22;25973;52.368;4.940;2023-01-29T16:11:17;6.90;99.90
40255;DHT22;25973;52.368;4.940;2023-01-29T16:13:46;6.90;99.90
40255;DHT22;25973;52.368;4.940;2023-01-29T16:16:22;7.00;99.90
40255;DHT22;25973;52.368;4.940;2023-01-29T16:18:48;6.90;99.90
40255;DHT22;25973;52.368;4.940;2023-01-29T16:21:32;6.90;99.90
40255;DHT22;25973;52.368;4.940;2023-01-29T16:24:10;6.90;99.90
40255;DHT22;25973;52.368;4.940;2023-01-29T16:26:42;6.90;99.90
40255;DHT22;25973;52.368;4.940;2023-01-29T16:29:10;6.90;99.90
40255;DHT22;25973;52.368;4.940;2023-01-29T16:31:37;6.90;99.90
40255;DHT22;25973;52.368;4.940;2023-01-29T16:34:12;6.90;99.90
40255;DHT22;25973;52.368;4.940;2023-01-29T16:36:46;6.90;99.90
40255;DHT22;25973;52.368;4.940;2023-01-29T16:39:17;6.90;99.90
40255;DHT22;25973;52.368;4.940;2023-01-29T16:41:44;6.90;99.90
40255;DHT22;25973;52.368;4.940;2023-01-29T16:46:45;6.90;99.90
40255;DHT22;25973;52.368;4.940;2023-01-29T16:51:55;6.90;99.90
40255;DHT22;25973;52.368;4.940;2023-01-29T16:54:25;6.90;99.90
40255;DHT22;25973;52.368;4.940;2023-01-29T16:56:54;6.90;99.90
40255;DHT22;25973;52.368;4.940;2023-01-29T16:59:40;6.90;99.90
40255;DHT22;25973;52.368;4.940;2023-01-29T17:02:33;6.90;99.90
40255;DHT22;25973;52.368;4.940;2023-01-29T17:05:05;6.90;99.90
40255;DHT22;25973;52.368;4.940;2023-01-29T17:07:32;6.90;99.90
40255;DHT22;25973;52.368;4.940;2023-01-29T17:10:00;6.90;99.90
40255;DHT22;25973;52.368;4.940;2023-01-29T17:12:27;6.90;99.90
40255;DHT22;25973;52.368;4.940;2023-01-29T17:15:04;6.90;99.90
40255;DHT22;25973;52.368;4.940;2023-01-29T17:17:34;6.90;99.90
40255;DHT22;25973;52.368;4.940;2023-01-29T17:20:15;6.80;99.90
40255;DHT22;25973;52.368;4.940;2023-01-29T17:22:41;6.90;99.90
40255;DHT22;25973;52.368;4.940;2023-01-29T17:25:11;6.90;99.90
40255;DHT22;25973;52.368;4.940;2023-01-29T17:27:40;6.90;99.90
40255;DHT22;25973;52.368;4.940;2023-01-29T17:30:13;6.90;99.90
40255;DHT22;25973;52.368;4.940;2023-01-29T17:32:39;6.90;99.90
40255;DHT22;25973;52.368;4.940;2023-01-29T17:35:04;6.90;99.90
40255;DHT22;25973;52.368;4.940;2023-01-29T17:37:31;6.90;99.90
40255;DHT22;25973;52.368;4.940;2023-01-29T17:39:56;6.80;99.90
40255;DHT22;25973;52.368;4.940;2023-01-29T17:42:23;6.90;99.90
40255;DHT22;25973;52.368;4.940;2023-01-29T17:44:49;6.90;99.90
40255;DHT22;25973;52.368;4.940;2023-01-29T17:47:15;6.90;99.90
40255;DHT22;25973;52.368;4.940;2023-01-29T17:49:41;6.90;99.90
40255;DHT22;25973;52.368;4.940;2023-01-29T17:52:07;6.90;99.90
40255;DHT22;25973;52.368;4.940;2023-01-29T17:54:32;6.90;99.90
40255;DHT22;25973;52.368;4.940;2023-01-29T17:56:58;6.90;99.90
40255;DHT22;25973;52.368;4.940;2023-01-29T17:59:27;6.90;99.90
40255;DHT22;25973;52.368;4.940;2023-01-29T18:01:53;6.90;99.90
40255;DHT22;25973;52.368;4.940;2023-01-29T18:04:19;6.90;99.90
40255;DHT22;25973;52.368;4.940;2023-01-29T18:06:47;6.90;99.90
40255;DHT22;25973;52.368;4.940;2023-01-29T18:09:15;6.90;99.90
40255;DHT22;25973;52.368;4.940;2023-01-29T18:11:41;6.90;99.90
40255;DHT22;25973;52.368;4.940;2023-01-29T18:14:08;6.90;99.90
40255;DHT22;25973;52.368;4.940;2023-01-29T18:16:34;6.90;99.90